sensor_id;sensor_type;location;lat;lon;timestamp;P1;durP1;ratioP1;P2;durP2;ratioP2
39104;SDS011;46464;51.154;13.812;2022-07-29T00:02:26;4.25;;;1.65;;
39104;SDS011;46464;51.154;13.812;2022-07-29T00:04:54;6.22;;;1.40;;
39104;SDS011;46464;51.154;13.812;2022-07-29T00:07:20;4.20;;;1.67;;
39104;SDS011;46464;51.154;13.812;2022-07-29T00:09:47;5.57;;;1.75;;
39104;SDS011;46464;51.154;13.812;2022-07-29T00:12:18;4.05;;;1.67;;
39104;SDS011;46464;51.154;13.812;2022-07-29T00:14:51;8.82;;;1.80;;
39104;SDS011;46464;51.154;13.812;2022-07-29T00:17:19;4.35;;;1.27;;
39104;SDS011;46464;51.154;13.812;2022-07-29T00:19:46;7.43;;;1.67;;
39104;SDS011;46464;51.154;13.812;2022-07-29T00:22:13;8.23;;;1.67;;
39104;SDS011;46464;51.154;13.812;2022-07-29T00:24:40;4.78;;;1.88;;
39104;SDS011;46464;51.154;13.812;2022-07-29T00:27:07;6.18;;;2.05;;
39104;SDS011;46464;51.154;13.812;2022-07-29T00:29:33;4.05;;;1.40;;
39104;SDS011;46464;51.154;13.812;2022-07-29T00:32:01;4.95;;;1.55;;
39104;SDS011;46464;51.154;13.812;2022-07-29T00:34:28;4.28;;;1.42;;
39104;SDS011;46464;51.154;13.812;2022-07-29T00:37:13;2.67;;;1.10;;
39104;SDS011;46464;51.154;13.812;2022-07-29T00:39:40;5.13;;;1.40;;
39104;SDS011;46464;51.154;13.812;2022-07-29T00:42:07;3.70;;;1.52;;
39104;SDS011;46464;51.154;13.812;2022-07-29T00:44:40;5.38;;;1.25;;
39104;SDS011;46464;51.154;13.812;2022-07-29T00:47:08;5.35;;;1.40;;
39104;SDS011;46464;51.154;13.812;2022-07-29T00:49:36;4.95;;;1.38;;
39104;SDS011;46464;51.154;13.812;2022-07-29T00:52:05;3.45;;;1.48;;
39104;SDS011;46464;51.154;13.812;2022-07-29T00:54:34;5.97;;;1.67;;
39104;SDS011;46464;51.154;13.812;2022-07-29T00:57:09;7.05;;;1.60;;
39104;SDS011;46464;51.154;13.812;2022-07-29T00:59:35;4.53;;;1.40;;
39104;SDS011;46464;51.154;13.812;2022-07-29T01:02:02;3.80;;;1.80;;
39104;SDS011;46464;51.154;13.812;2022-07-29T01:04:30;5.05;;;1.60;;
39104;SDS011;46464;51.154;13.812;2022-07-29T01:06:58;3.90;;;1.50;;
39104;SDS011;46464;51.154;13.812;2022-07-29T01:09:27;3.45;;;1.50;;
39104;SDS011;46464;51.154;13.812;2022-07-29T01:12:13;3.30;;;1.40;;
39104;SDS011;46464;51.154;13.812;2022-07-29T01:14:43;4.95;;;1.45;;
39104;SDS011;46464;51.154;13.812;2022-07-29T01:17:12;5.97;;;1.67;;
39104;SDS011;46464;51.154;13.812;2022-07-29T01:28:17;3.33;;;1.60;;
39104;SDS011;46464;51.154;13.812;2022-07-29T01:31:07;5.30;;;1.63;;
39104;SDS011;46464;51.154;13.812;2022-07-29T01:33:51;3.63;;;1.60;;
39104;SDS011;46464;51.154;13.812;2022-07-29T01:36:31;4.95;;;1.30;;
39104;SDS011;46464;51.154;13.812;2022-07-29T01:39:06;3.85;;;1.50;;
39104;SDS011;46464;51.154;13.812;2022-07-29T01:41:38;4.88;;;1.52;;
39104;SDS011;46464;51.154;13.812;2022-07-29T01:44:16;4.55;;;1.60;;
39104;SDS011;46464;51.154;13.812;2022-07-29T01:46:52;3.10;;;1.38;;
39104;SDS011;46464;51.154;13.812;2022-07-29T01:49:30;5.13;;;1.50;;
39104;SDS011;46464;51.154;13.812;2022-07-29T01:52:03;4.82;;;1.42;;
39104;SDS011;46464;51.154;13.812;2022-07-29T01:54:45;4.35;;;1.80;;
39104;SDS011;46464;51.154;13.812;2022-07-29T01:57:24;5.10;;;1.38;;
39104;SDS011;46464;51.154;13.812;2022-07-29T01:59:54;2.78;;;1.40;;
39104;SDS011;46464;51.154;13.812;2022-07-29T02:02:22;4.85;;;1.75;;
39104;SDS011;46464;51.154;13.812;2022-07-29T02:04:50;4.30;;;1.73;;
39104;SDS011;46464;51.154;13.812;2022-07-29T02:07:19;3.55;;;1.65;;
39104;SDS011;46464;51.154;13.812;2022-07-29T02:09:49;5.78;;;1.35;;
39104;SDS011;46464;51.154;13.812;2022-07-29T02:12:17;3.47;;;1.55;;
39104;SDS011;46464;51.154;13.812;2022-07-29T02:14:47;4.38;;;1.88;;
39104;SDS011;46464;51.154;13.812;2022-07-29T02:17:22;5.80;;;2.03;;
39104;SDS011;46464;51.154;13.812;2022-07-29T02:19:53;3.65;;;1.40;;
39104;SDS011;46464;51.154;13.812;2022-07-29T02:22:25;6.18;;;1.83;;
39104;SDS011;46464;51.154;13.812;2022-07-29T02:24:55;4.95;;;1.85;;
39104;SDS011;46464;51.154;13.812;2022-07-29T02:27:26;8.00;;;1.88;;
39104;SDS011;46464;51.154;13.812;2022-07-29T02:29:54;5.93;;;1.50;;
39104;SDS011;46464;51.154;13.812;2022-07-29T02:32:24;3.28;;;1.52;;
39104;SDS011;46464;51.154;13.812;2022-07-29T02:34:53;5.88;;;2.45;;
39104;SDS011;46464;51.154;13.812;2022-07-29T02:37:22;7.57;;;2.17;;
39104;SDS011;46464;51.154;13.812;2022-07-29T02:39:50;6.47;;;2.03;;
39104;SDS011;46464;51.154;13.812;2022-07-29T02:42:21;8.32;;;1.90;;
39104;SDS011;46464;51.154;13.812;2022-07-29T02:44:49;3.17;;;1.52;;
39104;SDS011;46464;51.154;13.812;2022-07-29T02:47:18;2.70;;;1.25;;
39104;SDS011;46464;51.154;13.812;2022-07-29T02:49:57;4.22;;;1.40;;
39104;SDS011;46464;51.154;13.812;2022-07-29T02:52:41;4.45;;;1.55;;
39104;SDS011;46464;51.154;13.812;2022-07-29T02:58:03;3.40;;;1.55;;
39104;SDS011;46464;51.154;13.812;2022-07-29T03:00:38;4.85;;;2.08;;
39104;SDS011;46464;51.154;13.812;2022-07-29T03:03:07;4.18;;;1.63;;
39104;SDS011;46464;51.154;13.812;2022-07-29T03:05:37;3.30;;;1.77;;
39104;SDS011;46464;51.154;13.812;2022-07-29T03:08:06;3.83;;;1.80;;
39104;SDS011;46464;51.154;13.812;2022-07-29T03:10:36;7.22;;;2.45;;
39104;SDS011;46464;51.154;13.812;2022-07-29T03:13:05;5.47;;;1.65;;
39104;SDS011;46464;51.154;13.812;2022-07-29T03:15:34;4.00;;;1.50;;
39104;SDS011;46464;51.154;13.812;2022-07-29T03:18:02;4.28;;;1.40;;
39104;SDS011;46464;51.154;13.812;2022-07-29T03:20:29;2.35;;;1.50;;
39104;SDS011;46464;51.154;13.812;2022-07-29T03:22:56;4.05;;;1.65;;
39104;SDS011;46464;51.154;13.812;2022-07-29T03:25:22;5.07;;;1.55;;
39104;SDS011;46464;51.154;13.812;2022-07-29T03:27:49;6.65;;;3.25;;
39104;SDS011;46464;51.154;13.812;2022-07-29T03:30:16;4.07;;;1.73;;
39104;SDS011;46464;51.154;13.812;2022-07-29T03:32:47;3.55;;;1.85;;
39104;SDS011;46464;51.154;13.812;2022-07-29T03:35:17;6.13;;;1.80;;
39104;SDS011;46464;51.154;13.812;2022-07-29T03:37:45;3.13;;;1.55;;
39104;SDS011;46464;51.154;13.812;2022-07-29T03:42:49;4.40;;;1.63;;
39104;SDS011;46464;51.154;13.812;2022-07-29T03:45:19;2.78;;;1.55;;
39104;SDS011;46464;51.154;13.812;2022-07-29T03:47:55;5.20;;;2.20;;
39104;SDS011;46464;51.154;13.812;2022-07-29T03:50:28;4.78;;;2.03;;
39104;SDS011;46464;51.154;13.812;2022-07-29T03:52:56;7.85;;;1.90;;
39104;SDS011;46464;51.154;13.812;2022-07-29T03:55:24;5.47;;;1.85;;
39104;SDS011;46464;51.154;13.812;2022-07-29T03:57:52;5.75;;;1.55;;
39104;SDS011;46464;51.154;13.812;2022-07-29T04:00:22;7.15;;;2.10;;
39104;SDS011;46464;51.154;13.812;2022-07-29T04:02:50;6.32;;;2.50;;
39104;SDS011;46464;51.154;13.812;2022-07-29T04:05:17;4.10;;;1.70;;
39104;SDS011;46464;51.154;13.812;2022-07-29T04:07:45;6.05;;;1.83;;
39104;SDS011;46464;51.154;13.812;2022-07-29T04:10:14;3.75;;;1.63;;
39104;SDS011;46464;51.154;13.812;2022-07-29T04:12:56;6.47;;;1.95;;
39104;SDS011;46464;51.154;13.812;2022-07-29T04:15:23;4.22;;;2.13;;
39104;SDS011;46464;51.154;13.812;2022-07-29T04:17:50;3.45;;;1.80;;
39104;SDS011;46464;51.154;13.812;2022-07-29T04:20:17;4.25;;;1.73;;
39104;SDS011;46464;51.154;13.812;2022-07-29T04:22:44;3.72;;;1.90;;
39104;SDS011;46464;51.154;13.812;2022-07-29T04:25:11;3.58;;;1.55;;
39104;SDS011;46464;51.154;13.812;2022-07-29T04:27:38;5.70;;;2.17;;
39104;SDS011;46464;51.154;13.812;2022-07-29T04:35:18;7.10;;;1.90;;
39104;SDS011;46464;51.154;13.812;2022-07-29T04:37:46;6.53;;;1.98;;
39104;SDS011;46464;51.154;13.812;2022-07-29T04:45:11;3.05;;;1.70;;
39104;SDS011;46464;51.154;13.812;2022-07-29T04:47:39;7.55;;;2.00;;
39104;SDS011;46464;51.154;13.812;2022-07-29T04:52:33;8.65;;;1.90;;
39104;SDS011;46464;51.154;13.812;2022-07-29T04:55:01;3.80;;;1.63;;
39104;SDS011;46464;51.154;13.812;2022-07-29T04:57:29;5.18;;;2.22;;
39104;SDS011;46464;51.154;13.812;2022-07-29T05:04:50;4.55;;;1.75;;
39104;SDS011;46464;51.154;13.812;2022-07-29T05:07:16;5.57;;;1.70;;
39104;SDS011;46464;51.154;13.812;2022-07-29T05:09:43;4.82;;;1.73;;
39104;SDS011;46464;51.154;13.812;2022-07-29T05:12:10;11.80;;;2.28;;
39104;SDS011;46464;51.154;13.812;2022-07-29T05:14:38;8.10;;;2.17;;
39104;SDS011;46464;51.154;13.812;2022-07-29T05:17:04;7.35;;;2.40;;
39104;SDS011;46464;51.154;13.812;2022-07-29T05:19:31;5.70;;;1.95;;
39104;SDS011;46464;51.154;13.812;2022-07-29T05:21:58;8.88;;;2.22;;
39104;SDS011;46464;51.154;13.812;2022-07-29T05:24:26;5.25;;;1.90;;
39104;SDS011;46464;51.154;13.812;2022-07-29T05:26:52;6.47;;;2.00;;
39104;SDS011;46464;51.154;13.812;2022-07-29T05:29:19;4.38;;;2.00;;
39104;SDS011;46464;51.154;13.812;2022-07-29T05:32:06;8.80;;;1.95;;
39104;SDS011;46464;51.154;13.812;2022-07-29T05:34:33;4.57;;;1.50;;
39104;SDS011;46464;51.154;13.812;2022-07-29T05:37:00;3.90;;;1.40;;
39104;SDS011;46464;51.154;13.812;2022-07-29T05:42:14;9.10;;;2.08;;
39104;SDS011;46464;51.154;13.812;2022-07-29T05:44:40;4.95;;;1.85;;
39104;SDS011;46464;51.154;13.812;2022-07-29T05:47:07;5.20;;;1.85;;
39104;SDS011;46464;51.154;13.812;2022-07-29T05:49:34;8.05;;;1.70;;
39104;SDS011;46464;51.154;13.812;2022-07-29T05:52:00;38.03;;;3.80;;
39104;SDS011;46464;51.154;13.812;2022-07-29T05:54:27;10.77;;;1.92;;
39104;SDS011;46464;51.154;13.812;2022-07-29T06:01:53;8.80;;;2.42;;
39104;SDS011;46464;51.154;13.812;2022-07-29T06:04:23;3.67;;;1.45;;
39104;SDS011;46464;51.154;13.812;2022-07-29T06:06:50;6.05;;;2.20;;
39104;SDS011;46464;51.154;13.812;2022-07-29T06:09:17;6.80;;;1.52;;
39104;SDS011;46464;51.154;13.812;2022-07-29T06:11:44;5.65;;;2.10;;
39104;SDS011;46464;51.154;13.812;2022-07-29T06:14:10;7.13;;;1.80;;
39104;SDS011;46464;51.154;13.812;2022-07-29T06:19:04;7.35;;;1.77;;
39104;SDS011;46464;51.154;13.812;2022-07-29T06:21:31;5.70;;;1.67;;
39104;SDS011;46464;51.154;13.812;2022-07-29T06:26:41;7.63;;;2.60;;
39104;SDS011;46464;51.154;13.812;2022-07-29T06:29:13;4.40;;;1.65;;
39104;SDS011;46464;51.154;13.812;2022-07-29T06:32:33;5.35;;;1.83;;
39104;SDS011;46464;51.154;13.812;2022-07-29T06:35:23;3.53;;;1.58;;
39104;SDS011;46464;51.154;13.812;2022-07-29T06:38:32;6.20;;;2.20;;
39104;SDS011;46464;51.154;13.812;2022-07-29T06:41:22;6.65;;;1.98;;
39104;SDS011;46464;51.154;13.812;2022-07-29T06:44:18;6.63;;;1.85;;
39104;SDS011;46464;51.154;13.812;2022-07-29T06:47:02;5.88;;;1.80;;
39104;SDS011;46464;51.154;13.812;2022-07-29T06:50:07;9.52;;;2.08;;
39104;SDS011;46464;51.154;13.812;2022-07-29T06:53:32;8.68;;;1.80;;
39104;SDS011;46464;51.154;13.812;2022-07-29T06:56:08;5.85;;;1.90;;
39104;SDS011;46464;51.154;13.812;2022-07-29T06:58:59;6.25;;;2.13;;
39104;SDS011;46464;51.154;13.812;2022-07-29T07:05:18;7.15;;;1.80;;
39104;SDS011;46464;51.154;13.812;2022-07-29T07:08:07;6.78;;;2.03;;
39104;SDS011;46464;51.154;13.812;2022-07-29T07:11:08;6.70;;;2.00;;
39104;SDS011;46464;51.154;13.812;2022-07-29T07:14:11;6.32;;;1.77;;
39104;SDS011;46464;51.154;13.812;2022-07-29T07:16:56;9.02;;;1.55;;
39104;SDS011;46464;51.154;13.812;2022-07-29T07:19:26;5.85;;;2.00;;
39104;SDS011;46464;51.154;13.812;2022-07-29T07:21:58;6.75;;;2.08;;
39104;SDS011;46464;51.154;13.812;2022-07-29T07:24:44;7.03;;;1.90;;
39104;SDS011;46464;51.154;13.812;2022-07-29T07:27:27;5.85;;;2.05;;
39104;SDS011;46464;51.154;13.812;2022-07-29T07:29:55;8.10;;;1.98;;
39104;SDS011;46464;51.154;13.812;2022-07-29T07:32:26;6.57;;;2.50;;
39104;SDS011;46464;51.154;13.812;2022-07-29T07:35:07;5.88;;;2.10;;
39104;SDS011;46464;51.154;13.812;2022-07-29T07:37:54;7.57;;;1.60;;
39104;SDS011;46464;51.154;13.812;2022-07-29T07:40:40;5.90;;;1.92;;
39104;SDS011;46464;51.154;13.812;2022-07-29T07:43:07;6.68;;;1.90;;
39104;SDS011;46464;51.154;13.812;2022-07-29T07:45:34;10.30;;;2.17;;
39104;SDS011;46464;51.154;13.812;2022-07-29T07:48:03;7.95;;;2.15;;
39104;SDS011;46464;51.154;13.812;2022-07-29T07:50:30;4.88;;;1.75;;
39104;SDS011;46464;51.154;13.812;2022-07-29T07:52:58;5.60;;;1.50;;
39104;SDS011;46464;51.154;13.812;2022-07-29T07:55:25;4.45;;;1.83;;
39104;SDS011;46464;51.154;13.812;2022-07-29T07:57:53;6.47;;;1.95;;
39104;SDS011;46464;51.154;13.812;2022-07-29T08:00:21;3.88;;;1.88;;
39104;SDS011;46464;51.154;13.812;2022-07-29T08:02:49;6.63;;;1.80;;
39104;SDS011;46464;51.154;13.812;2022-07-29T08:05:21;6.63;;;1.85;;
39104;SDS011;46464;51.154;13.812;2022-07-29T08:07:48;6.80;;;2.00;;
39104;SDS011;46464;51.154;13.812;2022-07-29T08:10:15;7.18;;;3.03;;
39104;SDS011;46464;51.154;13.812;2022-07-29T08:13:13;8.57;;;2.85;;
39104;SDS011;46464;51.154;13.812;2022-07-29T08:16:10;9.35;;;3.10;;
39104;SDS011;46464;51.154;13.812;2022-07-29T08:18:39;8.60;;;3.45;;
39104;SDS011;46464;51.154;13.812;2022-07-29T08:21:13;12.15;;;4.07;;
39104;SDS011;46464;51.154;13.812;2022-07-29T08:23:42;12.95;;;6.18;;
39104;SDS011;46464;51.154;13.812;2022-07-29T08:26:25;13.32;;;6.22;;
39104;SDS011;46464;51.154;13.812;2022-07-29T08:28:54;9.55;;;6.10;;
39104;SDS011;46464;51.154;13.812;2022-07-29T08:32:03;12.68;;;6.75;;
39104;SDS011;46464;51.154;13.812;2022-07-29T08:34:30;13.43;;;7.85;;
39104;SDS011;46464;51.154;13.812;2022-07-29T08:37:03;15.07;;;7.22;;
39104;SDS011;46464;51.154;13.812;2022-07-29T08:40:11;16.58;;;8.50;;
39104;SDS011;46464;51.154;13.812;2022-07-29T08:42:40;77.30;;;18.13;;
39104;SDS011;46464;51.154;13.812;2022-07-29T08:45:07;18.27;;;11.13;;
39104;SDS011;46464;51.154;13.812;2022-07-29T08:47:35;17.10;;;11.32;;
39104;SDS011;46464;51.154;13.812;2022-07-29T08:50:09;18.83;;;10.05;;
39104;SDS011;46464;51.154;13.812;2022-07-29T08:52:54;21.25;;;10.75;;
39104;SDS011;46464;51.154;13.812;2022-07-29T08:55:48;17.50;;;10.07;;
39104;SDS011;46464;51.154;13.812;2022-07-29T08:58:18;16.85;;;9.43;;
39104;SDS011;46464;51.154;13.812;2022-07-29T09:00:50;14.55;;;7.55;;
39104;SDS011;46464;51.154;13.812;2022-07-29T09:07:28;11.35;;;5.35;;
39104;SDS011;46464;51.154;13.812;2022-07-29T09:10:12;9.00;;;4.40;;
39104;SDS011;46464;51.154;13.812;2022-07-29T09:12:46;12.32;;;5.10;;
39104;SDS011;46464;51.154;13.812;2022-07-29T09:15:17;9.02;;;4.38;;
39104;SDS011;46464;51.154;13.812;2022-07-29T09:20:16;5.43;;;3.35;;
39104;SDS011;46464;51.154;13.812;2022-07-29T09:22:45;11.02;;;4.88;;
39104;SDS011;46464;51.154;13.812;2022-07-29T09:28:15;5.72;;;3.10;;
39104;SDS011;46464;51.154;13.812;2022-07-29T09:30:53;5.53;;;2.88;;
39104;SDS011;46464;51.154;13.812;2022-07-29T09:33:37;7.10;;;2.88;;
39104;SDS011;46464;51.154;13.812;2022-07-29T09:36:10;7.10;;;2.90;;
39104;SDS011;46464;51.154;13.812;2022-07-29T09:38:38;4.90;;;2.47;;
39104;SDS011;46464;51.154;13.812;2022-07-29T09:48:15;8.57;;;5.03;;
39104;SDS011;46464;51.154;13.812;2022-07-29T09:50:44;9.85;;;5.97;;
39104;SDS011;46464;51.154;13.812;2022-07-29T09:53:32;10.93;;;6.40;;
39104;SDS011;46464;51.154;13.812;2022-07-29T09:56:11;7.65;;;4.38;;
39104;SDS011;46464;51.154;13.812;2022-07-29T09:58:40;10.48;;;5.13;;
39104;SDS011;46464;51.154;13.812;2022-07-29T10:01:07;12.57;;;7.15;;
39104;SDS011;46464;51.154;13.812;2022-07-29T10:03:50;13.52;;;8.25;;
39104;SDS011;46464;51.154;13.812;2022-07-29T10:06:32;15.32;;;8.57;;
39104;SDS011;46464;51.154;13.812;2022-07-29T10:15:51;8.15;;;3.60;;
39104;SDS011;46464;51.154;13.812;2022-07-29T10:18:19;4.40;;;2.58;;
39104;SDS011;46464;51.154;13.812;2022-07-29T10:20:46;5.53;;;2.35;;
39104;SDS011;46464;51.154;13.812;2022-07-29T10:23:14;6.20;;;3.10;;
39104;SDS011;46464;51.154;13.812;2022-07-29T10:25:41;10.15;;;5.07;;
39104;SDS011;46464;51.154;13.812;2022-07-29T10:28:11;9.35;;;4.82;;
39104;SDS011;46464;51.154;13.812;2022-07-29T10:30:42;6.43;;;4.30;;
39104;SDS011;46464;51.154;13.812;2022-07-29T10:45:57;13.40;;;7.50;;
39104;SDS011;46464;51.154;13.812;2022-07-29T10:52:57;12.35;;;8.43;;
39104;SDS011;46464;51.154;13.812;2022-07-29T10:55:32;12.85;;;8.52;;
39104;SDS011;46464;51.154;13.812;2022-07-29T10:58:16;14.82;;;9.27;;
39104;SDS011;46464;51.154;13.812;2022-07-29T11:00:45;14.50;;;9.07;;
39104;SDS011;46464;51.154;13.812;2022-07-29T11:06:17;12.13;;;8.00;;
39104;SDS011;46464;51.154;13.812;2022-07-29T11:11:42;7.75;;;6.60;;
39104;SDS011;46464;51.154;13.812;2022-07-29T11:14:17;10.65;;;7.38;;
39104;SDS011;46464;51.154;13.812;2022-07-29T11:17:01;9.75;;;7.07;;
39104;SDS011;46464;51.154;13.812;2022-07-29T11:19:32;8.10;;;5.72;;
39104;SDS011;46464;51.154;13.812;2022-07-29T11:22:06;9.95;;;5.03;;
39104;SDS011;46464;51.154;13.812;2022-07-29T11:25:13;6.82;;;3.80;;
39104;SDS011;46464;51.154;13.812;2022-07-29T11:27:42;6.82;;;4.10;;
39104;SDS011;46464;51.154;13.812;2022-07-29T11:30:11;8.68;;;4.30;;
39104;SDS011;46464;51.154;13.812;2022-07-29T11:32:41;8.35;;;2.80;;
39104;SDS011;46464;51.154;13.812;2022-07-29T11:37:44;9.13;;;3.30;;
39104;SDS011;46464;51.154;13.812;2022-07-29T11:40:32;5.30;;;2.40;;
39104;SDS011;46464;51.154;13.812;2022-07-29T11:42:58;5.50;;;2.63;;
39104;SDS011;46464;51.154;13.812;2022-07-29T11:45:25;7.30;;;3.42;;
39104;SDS011;46464;51.154;13.812;2022-07-29T11:48:15;6.72;;;3.78;;
39104;SDS011;46464;51.154;13.812;2022-07-29T11:50:57;7.57;;;3.70;;
39104;SDS011;46464;51.154;13.812;2022-07-29T11:53:25;10.70;;;5.07;;
39104;SDS011;46464;51.154;13.812;2022-07-29T11:55:57;11.90;;;5.18;;
39104;SDS011;46464;51.154;13.812;2022-07-29T11:58:25;9.98;;;3.95;;
39104;SDS011;46464;51.154;13.812;2022-07-29T12:00:52;6.60;;;4.10;;
39104;SDS011;46464;51.154;13.812;2022-07-29T12:03:24;7.75;;;3.58;;
39104;SDS011;46464;51.154;13.812;2022-07-29T12:06:00;6.28;;;3.28;;
39104;SDS011;46464;51.154;13.812;2022-07-29T12:08:27;6.88;;;3.30;;
39104;SDS011;46464;51.154;13.812;2022-07-29T12:10:55;9.77;;;3.55;;
39104;SDS011;46464;51.154;13.812;2022-07-29T12:13:22;9.73;;;3.95;;
39104;SDS011;46464;51.154;13.812;2022-07-29T12:16:03;6.75;;;4.20;;
39104;SDS011;46464;51.154;13.812;2022-07-29T12:18:30;6.53;;;3.95;;
39104;SDS011;46464;51.154;13.812;2022-07-29T12:21:01;9.00;;;3.10;;
39104;SDS011;46464;51.154;13.812;2022-07-29T12:23:31;5.65;;;2.83;;
39104;SDS011;46464;51.154;13.812;2022-07-29T12:26:04;9.88;;;4.70;;
39104;SDS011;46464;51.154;13.812;2022-07-29T12:28:46;8.10;;;4.45;;
39104;SDS011;46464;51.154;13.812;2022-07-29T12:31:22;9.50;;;4.80;;
39104;SDS011;46464;51.154;13.812;2022-07-29T12:34:09;9.52;;;4.97;;
39104;SDS011;46464;51.154;13.812;2022-07-29T12:36:41;7.13;;;4.68;;
39104;SDS011;46464;51.154;13.812;2022-07-29T12:39:09;6.63;;;4.22;;
39104;SDS011;46464;51.154;13.812;2022-07-29T12:41:37;5.93;;;3.88;;
39104;SDS011;46464;51.154;13.812;2022-07-29T12:44:04;8.50;;;4.10;;
39104;SDS011;46464;51.154;13.812;2022-07-29T12:46:36;8.88;;;4.75;;
39104;SDS011;46464;51.154;13.812;2022-07-29T12:49:04;8.88;;;5.50;;
39104;SDS011;46464;51.154;13.812;2022-07-29T12:51:36;9.27;;;5.55;;
39104;SDS011;46464;51.154;13.812;2022-07-29T12:54:09;10.05;;;5.75;;
39104;SDS011;46464;51.154;13.812;2022-07-29T12:56:39;11.32;;;5.63;;
39104;SDS011;46464;51.154;13.812;2022-07-29T13:01:39;9.20;;;6.00;;
39104;SDS011;46464;51.154;13.812;2022-07-29T13:04:05;8.07;;;6.07;;
39104;SDS011;46464;51.154;13.812;2022-07-29T13:09:19;10.05;;;6.60;;
39104;SDS011;46464;51.154;13.812;2022-07-29T13:11:50;11.30;;;7.03;;
39104;SDS011;46464;51.154;13.812;2022-07-29T13:14:34;11.82;;;7.70;;
39104;SDS011;46464;51.154;13.812;2022-07-29T13:17:05;12.30;;;7.25;;
39104;SDS011;46464;51.154;13.812;2022-07-29T13:22:01;13.15;;;8.40;;
39104;SDS011;46464;51.154;13.812;2022-07-29T13:24:29;14.13;;;8.63;;
39104;SDS011;46464;51.154;13.812;2022-07-29T13:26:56;15.00;;;9.65;;
39104;SDS011;46464;51.154;13.812;2022-07-29T13:29:32;25.08;;;9.10;;
39104;SDS011;46464;51.154;13.812;2022-07-29T13:32:01;10.35;;;7.32;;
39104;SDS011;46464;51.154;13.812;2022-07-29T13:34:28;12.90;;;7.78;;
39104;SDS011;46464;51.154;13.812;2022-07-29T13:36:55;16.65;;;7.65;;
39104;SDS011;46464;51.154;13.812;2022-07-29T13:39:21;12.77;;;7.63;;
39104;SDS011;46464;51.154;13.812;2022-07-29T13:41:48;9.93;;;6.70;;
39104;SDS011;46464;51.154;13.812;2022-07-29T13:44:16;9.15;;;7.22;;
39104;SDS011;46464;51.154;13.812;2022-07-29T13:46:42;11.07;;;7.63;;
39104;SDS011;46464;51.154;13.812;2022-07-29T13:49:09;11.65;;;7.97;;
39104;SDS011;46464;51.154;13.812;2022-07-29T13:51:37;13.30;;;7.43;;
39104;SDS011;46464;51.154;13.812;2022-07-29T13:54:07;9.75;;;7.28;;
39104;SDS011;46464;51.154;13.812;2022-07-29T13:56:34;10.80;;;6.93;;
39104;SDS011;46464;51.154;13.812;2022-07-29T13:59:00;14.88;;;8.00;;
39104;SDS011;46464;51.154;13.812;2022-07-29T14:01:27;9.57;;;5.30;;
39104;SDS011;46464;51.154;13.812;2022-07-29T14:03:56;8.98;;;5.50;;
39104;SDS011;46464;51.154;13.812;2022-07-29T14:06:23;9.27;;;5.40;;
39104;SDS011;46464;51.154;13.812;2022-07-29T14:08:50;7.57;;;5.40;;
39104;SDS011;46464;51.154;13.812;2022-07-29T14:11:17;7.20;;;5.50;;
39104;SDS011;46464;51.154;13.812;2022-07-29T14:13:44;11.15;;;6.10;;
39104;SDS011;46464;51.154;13.812;2022-07-29T14:16:10;10.35;;;5.97;;
39104;SDS011;46464;51.154;13.812;2022-07-29T14:18:37;9.07;;;5.07;;
39104;SDS011;46464;51.154;13.812;2022-07-29T14:21:04;6.57;;;4.40;;
39104;SDS011;46464;51.154;13.812;2022-07-29T14:23:30;6.95;;;4.40;;
39104;SDS011;46464;51.154;13.812;2022-07-29T14:26:07;4.43;;;3.40;;
39104;SDS011;46464;51.154;13.812;2022-07-29T14:28:46;7.35;;;3.75;;
39104;SDS011;46464;51.154;13.812;2022-07-29T14:31:12;6.60;;;3.83;;
39104;SDS011;46464;51.154;13.812;2022-07-29T14:33:39;7.85;;;5.40;;
39104;SDS011;46464;51.154;13.812;2022-07-29T14:36:06;10.40;;;6.07;;
39104;SDS011;46464;51.154;13.812;2022-07-29T14:38:33;11.20;;;6.65;;
39104;SDS011;46464;51.154;13.812;2022-07-29T14:41:04;10.27;;;7.10;;
39104;SDS011;46464;51.154;13.812;2022-07-29T14:43:34;10.68;;;6.45;;
39104;SDS011;46464;51.154;13.812;2022-07-29T14:46:06;9.10;;;7.28;;
39104;SDS011;46464;51.154;13.812;2022-07-29T14:48:34;10.02;;;6.85;;
39104;SDS011;46464;51.154;13.812;2022-07-29T14:51:04;8.45;;;5.30;;
39104;SDS011;46464;51.154;13.812;2022-07-29T14:53:31;6.15;;;3.67;;
39104;SDS011;46464;51.154;13.812;2022-07-29T14:55:58;11.13;;;3.92;;
39104;SDS011;46464;51.154;13.812;2022-07-29T14:58:44;4.93;;;3.22;;
39104;SDS011;46464;51.154;13.812;2022-07-29T15:01:17;4.97;;;2.50;;
39104;SDS011;46464;51.154;13.812;2022-07-29T15:03:43;5.18;;;3.42;;
39104;SDS011;46464;51.154;13.812;2022-07-29T15:06:10;6.60;;;3.60;;
39104;SDS011;46464;51.154;13.812;2022-07-29T15:08:36;6.07;;;3.55;;
39104;SDS011;46464;51.154;13.812;2022-07-29T15:11:03;5.95;;;3.72;;
39104;SDS011;46464;51.154;13.812;2022-07-29T15:13:29;5.75;;;3.40;;
39104;SDS011;46464;51.154;13.812;2022-07-29T15:15:56;7.80;;;3.00;;
39104;SDS011;46464;51.154;13.812;2022-07-29T15:18:25;5.85;;;2.78;;
39104;SDS011;46464;51.154;13.812;2022-07-29T15:20:52;4.47;;;2.58;;
39104;SDS011;46464;51.154;13.812;2022-07-29T15:23:19;8.98;;;2.55;;
39104;SDS011;46464;51.154;13.812;2022-07-29T15:25:45;5.55;;;3.10;;
39104;SDS011;46464;51.154;13.812;2022-07-29T15:28:12;6.32;;;3.45;;
39104;SDS011;46464;51.154;13.812;2022-07-29T15:30:38;4.63;;;3.10;;
39104;SDS011;46464;51.154;13.812;2022-07-29T15:33:08;5.55;;;3.22;;
39104;SDS011;46464;51.154;13.812;2022-07-29T15:35:36;8.93;;;3.80;;
39104;SDS011;46464;51.154;13.812;2022-07-29T15:38:05;7.47;;;3.30;;
39104;SDS011;46464;51.154;13.812;2022-07-29T15:40:32;5.95;;;2.95;;
39104;SDS011;46464;51.154;13.812;2022-07-29T15:42:59;4.70;;;3.03;;
39104;SDS011;46464;51.154;13.812;2022-07-29T15:45:36;7.45;;;2.80;;
39104;SDS011;46464;51.154;13.812;2022-07-29T15:48:06;7.53;;;3.00;;
39104;SDS011;46464;51.154;13.812;2022-07-29T15:50:34;5.93;;;2.67;;
39104;SDS011;46464;51.154;13.812;2022-07-29T15:53:00;5.57;;;3.00;;
39104;SDS011;46464;51.154;13.812;2022-07-29T15:55:28;4.32;;;2.95;;
39104;SDS011;46464;51.154;13.812;2022-07-29T16:00:25;7.40;;;3.17;;
39104;SDS011;46464;51.154;13.812;2022-07-29T16:02:52;5.68;;;2.40;;
39104;SDS011;46464;51.154;13.812;2022-07-29T16:05:19;7.20;;;3.10;;
39104;SDS011;46464;51.154;13.812;2022-07-29T16:07:46;7.05;;;2.50;;
39104;SDS011;46464;51.154;13.812;2022-07-29T16:10:12;7.45;;;2.88;;
39104;SDS011;46464;51.154;13.812;2022-07-29T16:12:39;6.60;;;2.50;;
39104;SDS011;46464;51.154;13.812;2022-07-29T16:17:36;4.32;;;2.40;;
39104;SDS011;46464;51.154;13.812;2022-07-29T16:20:03;5.43;;;2.42;;
39104;SDS011;46464;51.154;13.812;2022-07-29T16:22:31;4.70;;;2.20;;
39104;SDS011;46464;51.154;13.812;2022-07-29T16:24:57;6.65;;;2.38;;
39104;SDS011;46464;51.154;13.812;2022-07-29T16:27:24;4.30;;;2.25;;
39104;SDS011;46464;51.154;13.812;2022-07-29T16:30:03;10.73;;;2.40;;
39104;SDS011;46464;51.154;13.812;2022-07-29T16:32:31;5.80;;;2.20;;
39104;SDS011;46464;51.154;13.812;2022-07-29T16:37:24;5.68;;;2.30;;
39104;SDS011;46464;51.154;13.812;2022-07-29T16:39:54;4.55;;;2.10;;
39104;SDS011;46464;51.154;13.812;2022-07-29T16:42:22;6.00;;;1.92;;
39104;SDS011;46464;51.154;13.812;2022-07-29T16:45:09;5.13;;;2.10;;
39104;SDS011;46464;51.154;13.812;2022-07-29T16:47:35;8.20;;;2.17;;
39104;SDS011;46464;51.154;13.812;2022-07-29T16:50:03;6.47;;;2.15;;
39104;SDS011;46464;51.154;13.812;2022-07-29T16:52:30;6.00;;;2.50;;